createdAt,value
2023-05-05T00:01:29.272Z,11.13
2023-05-05T00:03:56.000Z,11.29
2023-05-05T00:06:23.034Z,11.35
2023-05-05T00:08:49.668Z,11.32
2023-05-05T00:11:16.354Z,11.29
2023-05-05T00:13:43.016Z,11.09
2023-05-05T00:16:09.729Z,11.18
2023-05-05T00:18:36.438Z,11.22
2023-05-05T00:21:04.409Z,11.20
2023-05-05T00:23:31.024Z,11.04
2023-05-05T00:25:57.648Z,10.86
2023-05-05T00:28:24.268Z,10.66
2023-05-05T00:30:51.231Z,10.79
2023-05-05T00:33:17.863Z,10.84
2023-05-05T00:35:44.471Z,10.87
2023-05-05T00:38:11.138Z,10.76
2023-05-05T00:40:38.288Z,10.73
2023-05-05T00:43:05.360Z,10.83
2023-05-05T00:45:32.159Z,10.69
2023-05-05T00:48:00.205Z,10.60
2023-05-05T00:50:29.343Z,10.59
2023-05-05T00:53:03.971Z,10.56
2023-05-05T00:55:31.448Z,10.57
2023-05-05T00:57:59.049Z,10.57
2023-05-05T01:00:26.487Z,10.53
2023-05-05T01:02:53.539Z,10.65
2023-05-05T01:05:22.449Z,10.67
2023-05-05T01:08:13.697Z,10.70
2023-05-05T01:10:53.144Z,10.57
2023-05-05T01:13:45.298Z,10.53
2023-05-05T01:16:27.557Z,10.42
2023-05-05T01:19:31.295Z,10.41
2023-05-05T01:22:02.420Z,10.32
2023-05-05T01:24:44.226Z,10.16
2023-05-05T01:27:27.315Z,10.15
2023-05-05T01:30:31.284Z,10.31
2023-05-05T01:33:04.145Z,10.52
2023-05-05T01:35:42.517Z,10.31
2023-05-05T01:38:17.519Z,10.25
2023-05-05T01:40:49.116Z,10.06
2023-05-05T01:43:19.126Z,10.12
2023-05-05T01:45:48.721Z,9.93
2023-05-05T01:48:18.367Z,9.77
2023-05-05T01:50:47.164Z,9.46
2023-05-05T01:53:17.616Z,9.37
2023-05-05T01:55:46.910Z,9.58
2023-05-05T01:58:14.983Z,9.49
2023-05-05T02:00:42.816Z,9.58
2023-05-05T02:03:12.213Z,9.59
2023-05-05T02:05:40.198Z,9.77
2023-05-05T02:08:09.026Z,9.86
2023-05-05T02:10:38.152Z,9.83
2023-05-05T02:13:05.798Z,9.77
2023-05-05T02:15:34.145Z,9.73
2023-05-05T02:18:02.107Z,9.77
2023-05-05T02:20:31.207Z,9.83
2023-05-05T02:22:59.263Z,9.87
2023-05-05T02:25:38.668Z,9.79
2023-05-05T02:28:07.332Z,9.81
2023-05-05T02:30:36.566Z,9.80
2023-05-05T02:33:11.774Z,9.81
2023-05-05T02:35:41.310Z,9.73
2023-05-05T02:38:17.336Z,9.75
2023-05-05T02:40:46.954Z,9.41
2023-05-05T02:43:18.265Z,9.58
2023-05-05T02:45:45.292Z,9.60
2023-05-05T02:48:13.146Z,9.30
2023-05-05T02:50:40.121Z,9.43
2023-05-05T02:53:06.913Z,9.33
2023-05-05T02:55:45.569Z,9.54
2023-05-05T02:58:24.478Z,9.18
2023-05-05T03:01:01.995Z,9.22
2023-05-05T03:03:44.866Z,9.30
2023-05-05T03:06:16.527Z,9.29
2023-05-05T03:09:04.989Z,9.24
2023-05-05T03:11:49.764Z,9.49
2023-05-05T03:14:19.887Z,9.50
2023-05-05T03:16:47.671Z,9.32
2023-05-05T03:19:19.838Z,9.27
2023-05-05T03:21:46.528Z,9.24
2023-05-05T03:24:17.139Z,9.28
2023-05-05T03:26:45.923Z,9.24
2023-05-05T03:29:16.081Z,9.11
2023-05-05T03:31:42.855Z,9.00
2023-05-05T03:34:09.675Z,9.18
2023-05-05T03:36:36.475Z,9.26
2023-05-05T03:39:03.739Z,9.17
2023-05-05T03:41:30.463Z,9.02
2023-05-05T03:43:57.141Z,9.10
2023-05-05T03:46:23.788Z,9.07
2023-05-05T03:48:51.568Z,9.03
2023-05-05T03:51:18.347Z,9.16
2023-05-05T03:53:45.097Z,9.11
2023-05-05T03:56:11.753Z,9.07
2023-05-05T03:58:38.363Z,9.10
2023-05-05T04:01:05.155Z,9.15
2023-05-05T04:03:31.885Z,9.04
2023-05-05T04:05:58.602Z,9.09
2023-05-05T04:08:25.268Z,9.15
2023-05-05T04:10:51.859Z,9.14
2023-05-05T04:13:18.608Z,9.17
2023-05-05T04:15:48.478Z,9.09
2023-05-05T04:18:15.316Z,9.13
2023-05-05T04:20:42.020Z,9.09
2023-05-05T04:23:08.764Z,9.12
2023-05-05T04:25:35.494Z,9.00
2023-05-05T04:28:02.132Z,8.94
2023-05-05T04:30:28.836Z,8.90
2023-05-05T04:32:55.513Z,9.01
2023-05-05T04:35:22.468Z,8.96
2023-05-05T04:37:49.104Z,8.86
2023-05-05T04:40:15.718Z,9.13
2023-05-05T04:42:42.327Z,9.25
2023-05-05T04:45:09.258Z,9.33
2023-05-05T04:47:39.529Z,9.32
2023-05-05T04:50:07.346Z,9.41
2023-05-05T04:52:34.297Z,9.49
2023-05-05T04:55:01.301Z,9.53
2023-05-05T04:57:29.508Z,9.60
2023-05-05T04:59:56.203Z,9.70
2023-05-05T05:02:22.896Z,9.76
2023-05-05T05:04:49.624Z,9.81
2023-05-05T05:07:16.241Z,9.89
2023-05-05T05:09:42.860Z,9.97
2023-05-05T05:12:09.850Z,10.03
2023-05-05T05:14:40.128Z,10.22
2023-05-05T05:17:07.341Z,10.34
2023-05-05T05:19:34.310Z,10.44
2023-05-05T05:22:00.934Z,10.58
2023-05-05T05:24:27.615Z,10.68
2023-05-05T05:26:54.245Z,10.87
2023-05-05T05:29:20.875Z,10.92
2023-05-05T05:31:47.547Z,10.77
2023-05-05T05:34:14.212Z,11.03
2023-05-05T05:36:40.831Z,11.19
2023-05-05T05:39:07.487Z,11.13
2023-05-05T05:41:34.200Z,11.20
2023-05-05T05:44:00.857Z,11.38
2023-05-05T05:46:27.544Z,11.48
2023-05-05T05:48:54.254Z,11.78
2023-05-05T05:51:20.859Z,11.75
2023-05-05T05:53:47.494Z,11.77
2023-05-05T05:56:14.162Z,11.88
2023-05-05T05:58:40.799Z,12.05
2023-05-05T06:01:07.512Z,12.41
2023-05-05T06:03:35.355Z,12.62
2023-05-05T06:06:02.190Z,12.94
2023-05-05T06:08:28.829Z,13.09
2023-05-05T06:10:55.472Z,12.69
2023-05-05T06:13:22.096Z,13.04
2023-05-05T06:15:48.875Z,13.17
2023-05-05T06:18:15.564Z,13.13
2023-05-05T06:20:43.519Z,13.14
2023-05-05T06:23:10.327Z,13.26
2023-05-05T06:25:37.241Z,13.22
2023-05-05T06:28:05.715Z,13.33
2023-05-05T06:30:32.888Z,13.49
2023-05-05T06:32:59.890Z,13.17
2023-05-05T06:35:26.772Z,12.89
2023-05-05T06:37:53.456Z,13.20
2023-05-05T06:40:20.155Z,13.51
2023-05-05T06:42:46.844Z,13.70
2023-05-05T06:45:13.548Z,14.07
2023-05-05T06:47:40.212Z,13.62
2023-05-05T06:50:08.987Z,14.09
2023-05-05T06:52:36.134Z,14.03
2023-05-05T06:55:03.859Z,14.31
2023-05-05T06:57:30.562Z,14.82
2023-05-05T06:59:57.235Z,14.70
2023-05-05T07:02:25.980Z,14.39
2023-05-05T07:04:55.461Z,14.58
2023-05-05T07:07:22.318Z,14.30
2023-05-05T07:09:49.092Z,14.69
2023-05-05T07:12:15.817Z,14.61
2023-05-05T07:14:42.495Z,14.64
2023-05-05T07:17:09.086Z,14.88
2023-05-05T07:19:35.701Z,15.17
2023-05-05T07:22:02.308Z,15.32
2023-05-05T07:24:29.055Z,15.39
2023-05-05T07:26:55.790Z,15.55
2023-05-05T07:29:22.387Z,15.41
2023-05-05T07:31:49.034Z,15.28
2023-05-05T07:34:15.733Z,15.54
2023-05-05T07:36:42.388Z,15.51
2023-05-05T07:39:09.110Z,15.67
2023-05-05T07:41:35.846Z,16.23
2023-05-05T07:44:02.506Z,16.57
2023-05-05T07:46:29.137Z,16.73
2023-05-05T07:48:55.904Z,16.90
2023-05-05T07:51:22.646Z,16.91
2023-05-05T07:53:49.293Z,17.11
2023-05-05T07:56:15.974Z,17.35
2023-05-05T07:58:42.668Z,17.66
2023-05-05T08:01:11.138Z,17.24
2023-05-05T08:03:37.971Z,16.83
2023-05-05T08:06:12.002Z,17.19
2023-05-05T08:08:38.651Z,17.89
2023-05-05T08:11:06.682Z,17.56
2023-05-05T08:13:34.526Z,17.73
2023-05-05T08:16:01.318Z,18.36
2023-05-05T08:18:27.985Z,18.50
2023-05-05T08:20:54.837Z,18.76
2023-05-05T08:23:21.655Z,18.67
2023-05-05T08:25:48.318Z,18.22
2023-05-05T08:28:14.966Z,18.49
2023-05-05T08:30:42.793Z,18.37
2023-05-05T08:33:09.521Z,18.07
2023-05-05T08:35:36.166Z,18.06
2023-05-05T08:38:02.901Z,18.28
2023-05-05T08:40:33.892Z,18.68
2023-05-05T08:43:01.468Z,18.61
2023-05-05T08:45:29.210Z,18.50
2023-05-05T08:48:01.449Z,18.47
2023-05-05T08:50:29.515Z,18.67
2023-05-05T08:53:12.836Z,18.80
2023-05-05T08:55:49.896Z,18.83
2023-05-05T08:58:18.279Z,19.02
2023-05-05T09:00:47.873Z,19.40
2023-05-05T09:03:15.907Z,19.29
2023-05-05T09:05:44.113Z,19.30
2023-05-05T09:08:11.643Z,19.69
2023-05-05T09:10:41.599Z,20.17
2023-05-05T09:13:08.561Z,20.30
2023-05-05T09:15:35.405Z,20.43
2023-05-05T09:18:02.505Z,20.37
2023-05-05T09:20:37.890Z,21.03
2023-05-05T09:23:18.833Z,21.13
2023-05-05T09:25:48.188Z,21.25
2023-05-05T09:28:17.722Z,21.78
2023-05-05T09:30:47.624Z,22.04
2023-05-05T09:33:14.409Z,22.15
2023-05-05T09:35:55.077Z,22.23
2023-05-05T09:38:23.709Z,22.73
2023-05-05T09:40:52.034Z,23.25
2023-05-05T09:43:21.544Z,23.52
2023-05-05T09:45:51.714Z,23.74
2023-05-05T09:48:30.188Z,23.62
2023-05-05T09:50:58.222Z,23.33
2023-05-05T09:53:26.046Z,23.19
2023-05-05T09:56:01.011Z,23.09
2023-05-05T09:58:29.999Z,23.21
2023-05-05T10:00:57.976Z,23.33
2023-05-05T10:03:25.159Z,23.91
2023-05-05T10:05:56.890Z,23.70
2023-05-05T10:08:26.424Z,23.87
2023-05-05T10:11:07.117Z,24.05
2023-05-05T10:13:39.511Z,24.18
2023-05-05T10:16:08.420Z,24.12
2023-05-05T10:18:35.952Z,23.84
2023-05-05T10:21:04.167Z,23.83
2023-05-05T10:24:09.412Z,23.94
2023-05-05T10:26:42.428Z,23.76
2023-05-05T10:29:17.678Z,24.37
2023-05-05T10:31:52.853Z,24.52
2023-05-05T10:34:41.043Z,24.18
2023-05-05T10:37:07.836Z,23.73
2023-05-05T10:39:36.781Z,23.64
2023-05-05T10:42:03.550Z,23.77
2023-05-05T10:44:33.200Z,23.96
2023-05-05T10:47:01.909Z,24.52
2023-05-05T10:49:57.330Z,25.00
2023-05-05T10:52:31.167Z,24.91
2023-05-05T10:55:16.746Z,25.08
2023-05-05T10:57:45.862Z,25.10
2023-05-05T11:00:40.501Z,25.44
2023-05-05T11:03:16.649Z,26.00
2023-05-05T11:06:08.262Z,26.32
2023-05-05T11:08:36.705Z,26.49
2023-05-05T11:11:03.836Z,26.52
2023-05-05T11:13:31.224Z,26.26
2023-05-05T11:16:00.115Z,25.98
2023-05-05T11:18:39.798Z,25.05
2023-05-05T11:21:17.834Z,25.06
2023-05-05T11:23:46.292Z,24.74
2023-05-05T11:26:14.379Z,25.02
2023-05-05T11:29:10.204Z,24.81
2023-05-05T11:31:36.902Z,25.05
2023-05-05T11:34:29.044Z,24.66
2023-05-05T11:37:07.807Z,25.21
2023-05-05T11:40:16.702Z,26.04
2023-05-05T11:42:43.337Z,25.76
2023-05-05T11:45:24.574Z,25.98
2023-05-05T11:47:51.265Z,26.34
2023-05-05T11:50:23.160Z,26.29
2023-05-05T11:52:49.982Z,26.73
2023-05-05T11:55:20.277Z,27.05
2023-05-05T11:57:46.913Z,27.17
2023-05-05T12:00:14.078Z,27.60
2023-05-05T12:02:40.770Z,27.93
2023-05-05T12:05:08.058Z,28.01
2023-05-05T12:07:34.685Z,27.89
2023-05-05T12:10:01.740Z,27.75
2023-05-05T12:12:37.008Z,27.84
2023-05-05T12:15:04.604Z,27.92
2023-05-05T12:17:39.883Z,27.89
2023-05-05T12:20:07.668Z,27.62
2023-05-05T12:22:34.796Z,27.44
2023-05-05T12:25:05.121Z,27.50
2023-05-05T12:27:31.991Z,27.32
2023-05-05T12:30:12.253Z,26.74
2023-05-05T12:32:39.038Z,27.44
2023-05-05T12:35:07.861Z,27.70
2023-05-05T12:37:35.075Z,27.60
2023-05-05T12:40:01.711Z,27.40
2023-05-05T12:42:28.382Z,27.64
2023-05-05T12:44:55.028Z,28.01
2023-05-05T12:47:32.653Z,28.57
2023-05-05T12:50:00.368Z,28.72
2023-05-05T12:52:42.421Z,28.56
2023-05-05T12:55:10.482Z,28.90
2023-05-05T12:57:37.456Z,29.09
2023-05-05T13:00:18.104Z,29.00
2023-05-05T13:02:44.893Z,28.56
2023-05-05T13:05:12.008Z,28.34
2023-05-05T13:07:50.790Z,28.40
2023-05-05T13:10:17.451Z,28.26
2023-05-05T13:12:44.108Z,28.01
2023-05-05T13:15:11.504Z,28.08
2023-05-05T13:17:38.193Z,28.32
2023-05-05T13:20:06.649Z,27.82
2023-05-05T13:22:33.274Z,27.71
2023-05-05T13:24:59.887Z,28.05
2023-05-05T13:27:27.140Z,27.92
2023-05-05T13:29:53.753Z,27.42
2023-05-05T13:32:20.386Z,27.43
2023-05-05T13:34:47.039Z,27.10
2023-05-05T13:37:13.748Z,27.15
2023-05-05T13:39:40.477Z,27.15
2023-05-05T13:42:07.285Z,27.76
2023-05-05T13:44:35.310Z,28.13
2023-05-05T13:47:01.990Z,28.78
2023-05-05T13:49:28.673Z,29.04
2023-05-05T13:51:56.346Z,29.43
2023-05-05T13:54:23.070Z,29.37
2023-05-05T13:56:49.704Z,29.46
2023-05-05T13:59:16.319Z,29.69
2023-05-05T14:01:42.996Z,29.76
2023-05-05T14:04:09.686Z,30.01
2023-05-05T14:06:36.460Z,30.05
2023-05-05T14:09:06.114Z,29.73
2023-05-05T14:11:33.061Z,29.16
2023-05-05T14:13:59.692Z,28.50
2023-05-05T14:16:26.425Z,28.20
2023-05-05T14:18:53.161Z,28.47
2023-05-05T14:21:19.796Z,28.67
2023-05-05T14:23:46.545Z,28.81
2023-05-05T14:26:13.245Z,29.02
2023-05-05T14:28:39.898Z,29.21
2023-05-05T14:31:06.528Z,29.42
2023-05-05T14:33:33.155Z,29.63
2023-05-05T14:35:59.979Z,29.57
2023-05-05T14:38:26.695Z,29.29
2023-05-05T14:40:53.372Z,29.29
2023-05-05T14:43:20.771Z,29.12
2023-05-05T14:45:47.519Z,29.17
2023-05-05T14:48:14.178Z,29.16
2023-05-05T14:50:42.486Z,28.86
2023-05-05T14:53:09.123Z,28.86
2023-05-05T14:55:35.872Z,28.70
2023-05-05T14:58:02.480Z,28.68
2023-05-05T15:00:29.138Z,28.81
2023-05-05T15:02:55.797Z,28.81
2023-05-05T15:05:22.444Z,28.83
2023-05-05T15:07:49.097Z,28.67
2023-05-05T15:10:15.828Z,28.42
2023-05-05T15:12:43.098Z,28.13
2023-05-05T15:15:10.794Z,27.99
2023-05-05T15:17:39.013Z,28.07
2023-05-05T15:20:06.809Z,27.96
2023-05-05T15:22:33.932Z,27.86
2023-05-05T15:25:01.279Z,27.90
2023-05-05T15:27:28.078Z,27.72
2023-05-05T15:29:55.323Z,27.81
2023-05-05T15:32:22.115Z,27.68
2023-05-05T15:34:50.352Z,27.66
2023-05-05T15:37:17.290Z,27.64
2023-05-05T15:39:44.014Z,27.58
2023-05-05T15:42:10.722Z,27.56
2023-05-05T15:44:37.627Z,27.43
2023-05-05T15:47:05.083Z,27.39
2023-05-05T15:49:31.810Z,27.29
2023-05-05T15:51:58.496Z,27.11
2023-05-05T15:54:25.184Z,27.00
2023-05-05T15:56:51.803Z,26.99
2023-05-05T15:59:19.256Z,26.94
2023-05-05T16:01:46.441Z,26.82
2023-05-05T16:04:13.233Z,26.73
2023-05-05T16:06:39.870Z,26.77
2023-05-05T16:09:06.532Z,26.72
2023-05-05T16:11:33.229Z,26.49
2023-05-05T16:13:59.821Z,26.53
2023-05-05T16:16:26.457Z,26.42
2023-05-05T16:18:53.125Z,26.31
2023-05-05T16:21:19.781Z,26.24
2023-05-05T16:23:46.684Z,26.21
2023-05-05T16:26:13.274Z,25.95
2023-05-05T16:28:39.886Z,26.00
2023-05-05T16:31:06.517Z,25.78
2023-05-05T16:33:33.139Z,25.63
2023-05-05T16:35:59.801Z,25.69
2023-05-05T16:38:26.409Z,25.61
2023-05-05T16:40:53.028Z,25.48
2023-05-05T16:43:19.741Z,25.44
2023-05-05T16:45:46.652Z,25.63
2023-05-05T16:48:14.752Z,25.52
2023-05-05T16:50:41.529Z,25.36
2023-05-05T16:53:09.220Z,25.37
2023-05-05T16:55:36.955Z,25.14
2023-05-05T16:58:04.806Z,25.01
2023-05-05T17:00:31.487Z,24.90
2023-05-05T17:02:58.253Z,24.89
2023-05-05T17:05:24.936Z,24.88
2023-05-05T17:07:52.240Z,24.96
2023-05-05T17:10:18.900Z,25.05
2023-05-05T17:12:45.804Z,24.88
2023-05-05T17:15:12.478Z,24.96
2023-05-05T17:17:40.550Z,24.89
2023-05-05T17:20:09.398Z,24.88
2023-05-05T17:22:36.331Z,24.77
2023-05-05T17:25:03.324Z,24.89
2023-05-05T17:27:29.935Z,24.78
2023-05-05T17:29:56.613Z,24.74
2023-05-05T17:32:23.391Z,24.77
2023-05-05T17:34:50.063Z,24.65
2023-05-05T17:37:16.684Z,24.68
2023-05-05T17:39:43.325Z,24.75
2023-05-05T17:42:09.969Z,24.48
2023-05-05T17:44:36.848Z,24.44
2023-05-05T17:47:04.041Z,24.34
2023-05-05T17:49:30.803Z,24.31
2023-05-05T17:51:57.404Z,24.35
2023-05-05T17:54:24.058Z,24.27
2023-05-05T17:56:50.689Z,24.27
2023-05-05T17:59:17.548Z,24.22
2023-05-05T18:01:44.358Z,24.02
2023-05-05T18:04:11.041Z,24.04
2023-05-05T18:06:37.711Z,24.06
2023-05-05T18:09:04.677Z,23.92
2023-05-05T18:11:32.117Z,23.59
2023-05-05T18:13:58.814Z,23.81
2023-05-05T18:16:25.864Z,23.83
2023-05-05T18:18:52.658Z,24.13
2023-05-05T18:21:19.421Z,24.18
2023-05-05T18:23:46.138Z,24.10
2023-05-05T18:26:12.751Z,24.03
2023-05-05T18:28:39.341Z,23.84
2023-05-05T18:31:06.299Z,23.94
2023-05-05T18:33:33.119Z,24.04
2023-05-05T18:35:59.724Z,24.19
2023-05-05T18:38:26.374Z,24.15
2023-05-05T18:40:53.057Z,24.10
2023-05-05T18:43:19.786Z,24.07
2023-05-05T18:45:46.493Z,23.97
2023-05-05T18:48:13.241Z,23.90
2023-05-05T18:50:39.877Z,23.77
2023-05-05T18:53:06.592Z,23.40
2023-05-05T18:55:33.411Z,23.46
2023-05-05T18:58:00.033Z,23.55
2023-05-05T19:00:26.668Z,23.36
2023-05-05T19:02:54.225Z,23.04
2023-05-05T19:05:21.062Z,22.89
2023-05-05T19:07:47.833Z,22.89
2023-05-05T19:10:14.437Z,22.82
2023-05-05T19:12:41.090Z,22.59
2023-05-05T19:15:08.452Z,22.46
2023-05-05T19:17:35.272Z,22.37
2023-05-05T19:20:02.090Z,22.24
2023-05-05T19:22:28.754Z,22.12
2023-05-05T19:24:55.418Z,22.18
2023-05-05T19:27:22.070Z,22.12
2023-05-05T19:29:52.803Z,21.73
2023-05-05T19:32:21.113Z,21.60
2023-05-05T19:34:48.061Z,21.67
2023-05-05T19:37:14.848Z,21.68
2023-05-05T19:39:44.343Z,21.59
2023-05-05T19:42:11.048Z,21.48
2023-05-05T19:44:37.716Z,21.39
2023-05-05T19:47:04.804Z,21.03
2023-05-05T19:49:31.573Z,20.95
2023-05-05T19:51:58.969Z,20.79
2023-05-05T19:54:25.783Z,20.99
2023-05-05T19:56:52.981Z,20.77
2023-05-05T19:59:20.427Z,20.73
2023-05-05T20:01:47.048Z,20.21
2023-05-05T20:04:13.744Z,20.36
2023-05-05T20:06:40.504Z,20.22
2023-05-05T20:09:07.348Z,20.24
2023-05-05T20:11:34.452Z,20.16
2023-05-05T20:14:01.532Z,20.08
2023-05-05T20:16:28.352Z,20.33
2023-05-05T20:18:55.024Z,20.13
2023-05-05T20:21:21.707Z,19.71
2023-05-05T20:23:48.400Z,19.11
2023-05-05T20:26:15.080Z,19.38
2023-05-05T20:28:45.281Z,19.61
2023-05-05T20:31:13.549Z,19.83
2023-05-05T20:33:40.225Z,19.89
2023-05-05T20:36:07.378Z,19.81
2023-05-05T20:38:34.051Z,19.74
2023-05-05T20:41:00.814Z,19.78
2023-05-05T20:43:27.578Z,19.51
2023-05-05T20:45:54.250Z,19.42
2023-05-05T20:48:21.014Z,19.17
2023-05-05T20:50:47.680Z,19.03
2023-05-05T20:53:15.020Z,18.93
2023-05-05T20:55:41.845Z,19.08
2023-05-05T20:58:08.513Z,18.83
2023-05-05T21:00:35.579Z,18.99
2023-05-05T21:03:05.365Z,18.88
2023-05-05T21:05:32.660Z,18.82
2023-05-05T21:08:00.837Z,18.93
2023-05-05T21:10:29.116Z,18.67
2023-05-05T21:12:56.036Z,18.61
2023-05-05T21:15:22.959Z,18.58
2023-05-05T21:17:49.706Z,18.28
2023-05-05T21:20:17.067Z,17.26
2023-05-05T21:22:43.772Z,16.54
2023-05-05T21:25:11.541Z,16.60
2023-05-05T21:27:38.248Z,16.37
2023-05-05T21:30:05.426Z,16.18
2023-05-05T21:32:32.142Z,15.86
2023-05-05T21:34:58.806Z,15.54
2023-05-05T21:37:25.441Z,15.36
2023-05-05T21:39:52.128Z,15.15
2023-05-05T21:42:19.921Z,14.72
2023-05-05T21:44:46.590Z,14.66
2023-05-05T21:47:13.188Z,14.57
2023-05-05T21:49:39.822Z,14.54
2023-05-05T21:52:06.474Z,14.34
2023-05-05T21:54:33.166Z,14.33
2023-05-05T21:57:00.345Z,14.34
2023-05-05T21:59:27.001Z,14.29
2023-05-05T22:01:53.799Z,14.08
2023-05-05T22:04:21.106Z,14.00
2023-05-05T22:06:47.735Z,14.07
2023-05-05T22:09:14.344Z,13.93
2023-05-05T22:11:41.037Z,13.66
2023-05-05T22:14:07.758Z,13.78
2023-05-05T22:16:34.445Z,13.67
2023-05-05T22:19:01.679Z,13.62
2023-05-05T22:21:28.352Z,13.80
2023-05-05T22:23:54.961Z,13.93
2023-05-05T22:26:21.578Z,14.14
2023-05-05T22:28:48.646Z,14.40
2023-05-05T22:31:16.511Z,14.44
2023-05-05T22:33:43.792Z,14.81
2023-05-05T22:36:11.552Z,14.85
2023-05-05T22:38:38.222Z,14.46
2023-05-05T22:41:06.656Z,13.93
2023-05-05T22:43:33.318Z,13.69
2023-05-05T22:45:59.958Z,13.78
2023-05-05T22:48:26.854Z,13.72
2023-05-05T22:50:53.677Z,13.65
2023-05-05T22:53:20.306Z,13.54
2023-05-05T22:55:46.948Z,13.38
2023-05-05T22:58:13.596Z,13.30
2023-05-05T23:00:40.227Z,13.63
2023-05-05T23:03:06.855Z,13.84
2023-05-05T23:05:34.533Z,13.92
2023-05-05T23:08:01.540Z,14.07
2023-05-05T23:10:29.238Z,13.92
2023-05-05T23:12:55.882Z,13.81
2023-05-05T23:15:22.904Z,13.88
2023-05-05T23:17:49.614Z,14.09
2023-05-05T23:20:16.347Z,14.15
2023-05-05T23:22:42.938Z,14.21
2023-05-05T23:25:09.876Z,14.10
2023-05-05T23:27:40.059Z,14.03
2023-05-05T23:30:11.168Z,14.25
2023-05-05T23:32:37.997Z,14.21
2023-05-05T23:35:05.160Z,14.13
2023-05-05T23:37:31.781Z,14.35
2023-05-05T23:39:58.477Z,14.51
2023-05-05T23:42:25.324Z,14.75
2023-05-05T23:44:52.014Z,14.92
2023-05-05T23:47:18.657Z,14.99
2023-05-05T23:49:45.258Z,15.00
2023-05-05T23:52:13.136Z,15.04
2023-05-05T23:54:40.175Z,15.24
2023-05-05T23:57:06.815Z,15.44
2023-05-05T23:59:33.404Z,15.45
